createdAt,value
2023-04-01T00:00:23.546Z,99154.47
2023-04-01T00:02:50.879Z,99156.72
2023-04-01T00:05:18.679Z,99158.75
2023-04-01T00:07:46.024Z,99155.69
2023-04-01T00:10:16.010Z,99155.09
2023-04-01T00:12:43.942Z,99150.63
2023-04-01T00:15:13.248Z,99140.56
2023-04-01T00:17:40.620Z,99147.94
2023-04-01T00:20:09.471Z,99151.50
2023-04-01T00:22:37.013Z,99146.03
2023-04-01T00:25:05.610Z,99146.91
2023-04-01T00:27:33.344Z,99149.94
2023-04-01T00:30:04.379Z,99154.78
2023-04-01T00:32:32.377Z,99146.41
2023-04-01T00:35:01.179Z,99158.25
2023-04-01T00:37:29.478Z,99151.44
2023-04-01T00:39:57.654Z,99160.38
2023-04-01T00:42:25.597Z,99156.81
2023-04-01T00:44:54.023Z,99153.91
2023-04-01T00:47:21.568Z,99153.25
2023-04-01T00:49:51.906Z,99162.34
2023-04-01T00:52:24.447Z,99159.25
2023-04-01T00:54:54.869Z,99163.84
2023-04-01T00:57:27.459Z,99159.88
2023-04-01T00:59:56.479Z,99162.69
2023-04-01T01:02:26.192Z,99156.06
2023-04-01T01:04:53.484Z,99166.91
2023-04-01T01:07:40.463Z,99152.38
2023-04-01T01:10:13.746Z,99165.44
2023-04-01T01:13:06.989Z,99166.31
2023-04-01T01:15:35.775Z,99167.44
2023-04-01T01:18:08.795Z,99160.19
2023-04-01T01:20:54.359Z,99158.78
2023-04-01T01:23:32.010Z,99165.44
2023-04-01T01:26:12.124Z,99165.13
2023-04-01T01:28:39.090Z,99171.81
2023-04-01T01:31:19.181Z,99166.75
2023-04-01T01:33:50.587Z,99169.88
2023-04-01T01:36:20.198Z,99167.84
2023-04-01T01:38:49.503Z,99175.06
2023-04-01T01:41:19.958Z,99175.25
2023-04-01T01:43:49.654Z,99172.00
2023-04-01T01:46:19.641Z,99165.66
2023-04-01T01:48:49.485Z,99170.50
2023-04-01T01:51:17.111Z,99166.94
2023-04-01T01:53:44.592Z,99179.53
2023-04-01T01:56:17.023Z,99172.13
2023-04-01T01:58:46.217Z,99174.91
2023-04-01T02:01:18.090Z,99178.25
2023-04-01T02:03:47.086Z,99173.16
2023-04-01T02:06:17.201Z,99180.25
2023-04-01T02:08:47.069Z,99181.81
2023-04-01T02:11:16.672Z,99176.88
2023-04-01T02:13:50.266Z,99181.38
2023-04-01T02:16:31.029Z,99178.31
2023-04-01T02:18:59.521Z,99184.09
2023-04-01T02:21:30.220Z,99189.59
2023-04-01T02:23:59.082Z,99185.84
2023-04-01T02:26:27.945Z,99183.00
2023-04-01T02:28:56.537Z,99188.13
2023-04-01T02:31:25.239Z,99186.16
2023-04-01T02:33:55.408Z,99189.19
2023-04-01T02:36:22.997Z,99190.41
2023-04-01T02:38:51.586Z,99193.66
2023-04-01T02:41:19.358Z,99196.31
2023-04-01T02:43:46.843Z,99192.22
2023-04-01T02:46:14.016Z,99199.78
2023-04-01T02:48:41.734Z,99193.81
2023-04-01T02:51:09.751Z,99200.19
2023-04-01T02:53:37.226Z,99198.94
2023-04-01T02:56:04.544Z,99202.19
2023-04-01T02:58:33.101Z,99207.16
2023-04-01T03:01:01.648Z,99198.91
2023-04-01T03:03:29.016Z,99212.56
2023-04-01T03:05:59.873Z,99217.19
2023-04-01T03:08:29.391Z,99213.63
2023-04-01T03:10:58.491Z,99215.56
2023-04-01T03:13:26.982Z,99210.75
2023-04-01T03:15:55.216Z,99222.00
2023-04-01T03:18:22.690Z,99227.00
2023-04-01T03:20:50.120Z,99220.41
2023-04-01T03:23:19.410Z,99220.03
2023-04-01T03:25:48.585Z,99223.44
2023-04-01T03:28:15.890Z,99223.75
2023-04-01T03:30:43.524Z,99219.25
2023-04-01T03:33:12.652Z,99225.91
2023-04-01T03:35:41.380Z,99234.00
2023-04-01T03:38:08.562Z,99232.13
2023-04-01T03:40:38.519Z,99226.22
2023-04-01T03:43:09.550Z,99233.31
2023-04-01T03:45:37.118Z,99244.34
2023-04-01T03:48:05.053Z,99238.75
2023-04-01T03:50:32.642Z,99236.44
2023-04-01T03:53:00.070Z,99241.44
2023-04-01T03:55:27.485Z,99248.94
2023-04-01T03:57:54.674Z,99255.16
2023-04-01T04:00:22.092Z,99256.84
2023-04-01T04:02:49.630Z,99252.56
2023-04-01T04:05:17.219Z,99257.13
2023-04-01T04:07:44.574Z,99262.38
2023-04-01T04:10:12.075Z,99263.75
2023-04-01T04:12:39.596Z,99275.63
2023-04-01T04:15:06.905Z,99277.31
2023-04-01T04:17:34.156Z,99280.63
2023-04-01T04:20:02.989Z,99286.09
2023-04-01T04:22:30.525Z,99292.13
2023-04-01T04:24:57.805Z,99292.13
2023-04-01T04:27:25.079Z,99303.56
2023-04-01T04:29:52.461Z,99307.53
2023-04-01T04:32:20.112Z,99315.19
2023-04-01T04:34:47.580Z,99310.97
2023-04-01T04:37:15.011Z,99321.19
2023-04-01T04:39:42.565Z,99322.31
2023-04-01T04:42:09.648Z,99322.44
2023-04-01T04:44:36.955Z,99331.94
2023-04-01T04:47:03.909Z,99330.78
2023-04-01T04:49:31.273Z,99333.25
2023-04-01T04:51:58.645Z,99329.59
2023-04-01T04:54:26.022Z,99339.09
2023-04-01T04:56:53.704Z,99337.84
2023-04-01T04:59:21.200Z,99341.56
2023-04-01T05:01:48.598Z,99344.88
2023-04-01T05:04:16.073Z,99353.31
2023-04-01T05:06:45.427Z,99358.97
2023-04-01T05:09:12.675Z,99355.75
2023-04-01T05:11:40.998Z,99366.75
2023-04-01T05:14:13.280Z,99369.22
2023-04-01T05:16:40.919Z,99372.44
2023-04-01T05:19:08.846Z,99371.91
2023-04-01T05:21:37.103Z,99376.66
2023-04-01T05:24:04.709Z,99380.84
2023-04-01T05:26:34.037Z,99384.19
2023-04-01T05:29:01.823Z,99388.13
2023-04-01T05:31:29.275Z,99392.63
2023-04-01T05:33:56.829Z,99398.66
2023-04-01T05:36:24.113Z,99399.16
2023-04-01T05:38:51.694Z,99408.31
2023-04-01T05:41:20.119Z,99408.41
2023-04-01T05:43:47.733Z,99416.38
2023-04-01T05:46:14.877Z,99417.09
2023-04-01T05:48:42.236Z,99426.69
2023-04-01T05:51:13.754Z,99429.91
2023-04-01T05:53:41.499Z,99429.53
2023-04-01T05:56:10.558Z,99431.41
2023-04-01T05:58:38.412Z,99438.59
2023-04-01T06:01:11.624Z,99434.06
2023-04-01T06:03:41.788Z,99440.19
2023-04-01T06:06:16.843Z,99444.09
2023-04-01T06:08:44.481Z,99438.97
2023-04-01T06:11:24.997Z,99446.25
2023-04-01T06:14:00.517Z,99455.38
2023-04-01T06:16:31.821Z,99453.75
2023-04-01T06:19:14.167Z,99452.44
2023-04-01T06:22:06.102Z,99459.88
2023-04-01T06:24:48.345Z,99459.84
2023-04-01T06:27:22.859Z,99464.78
2023-04-01T06:30:20.034Z,99468.06
2023-04-01T06:33:02.712Z,99483.28
2023-04-01T06:35:33.211Z,99485.00
2023-04-01T06:38:06.671Z,99490.38
2023-04-01T06:40:46.819Z,99501.31
2023-04-01T06:43:32.771Z,99496.81
2023-04-01T06:45:59.696Z,99502.97
2023-04-01T06:48:35.665Z,99506.97
2023-04-01T06:51:13.061Z,99505.81
2023-04-01T06:53:47.523Z,99506.19
2023-04-01T06:56:16.905Z,99520.47
2023-04-01T06:58:47.697Z,99520.09
2023-04-01T07:01:18.619Z,99530.84
2023-04-01T07:04:12.361Z,99530.41
2023-04-01T07:06:52.644Z,99527.91
2023-04-01T07:09:26.150Z,99546.63
2023-04-01T07:11:55.217Z,99534.56
2023-04-01T07:14:26.738Z,99552.28
2023-04-01T07:17:00.161Z,99552.88
2023-04-01T07:19:36.349Z,99552.34
2023-04-01T07:22:12.076Z,99554.09
2023-04-01T07:24:43.522Z,99563.66
2023-04-01T07:27:11.951Z,99559.06
2023-04-01T07:29:40.215Z,99564.44
2023-04-01T07:32:19.520Z,99566.50
2023-04-01T07:34:52.411Z,99574.72
2023-04-01T07:37:19.653Z,99579.56
2023-04-01T07:40:06.528Z,99591.19
2023-04-01T07:42:34.719Z,99594.22
2023-04-01T07:45:20.076Z,99588.47
2023-04-01T07:47:58.293Z,99596.31
2023-04-01T07:50:39.174Z,99596.56
2023-04-01T07:53:13.573Z,99607.53
2023-04-01T07:55:41.031Z,99614.19
2023-04-01T07:58:23.079Z,99618.72
2023-04-01T08:01:15.772Z,99620.28
2023-04-01T08:03:43.468Z,99626.78
2023-04-01T08:06:30.705Z,99619.06
2023-04-01T08:08:57.844Z,99630.09
2023-04-01T08:11:43.776Z,99633.69
2023-04-01T08:14:11.015Z,99635.06
2023-04-01T08:16:47.291Z,99636.41
2023-04-01T08:19:15.702Z,99650.41
2023-04-01T08:21:45.819Z,99640.78
2023-04-01T08:24:46.454Z,99644.16
2023-04-01T08:27:19.635Z,99651.84
2023-04-01T08:29:53.820Z,99663.94
2023-04-01T08:32:25.283Z,99661.16
2023-04-01T08:34:56.678Z,99665.38
2023-04-01T08:37:25.980Z,99672.41
2023-04-01T08:39:56.212Z,99675.19
2023-04-01T08:42:29.902Z,99682.31
2023-04-01T08:45:06.426Z,99678.47
2023-04-01T08:47:35.801Z,99688.91
2023-04-01T08:50:02.892Z,99686.69
2023-04-01T08:53:03.305Z,99688.81
2023-04-01T08:55:30.952Z,99700.28
2023-04-01T08:58:13.157Z,99691.91
2023-04-01T09:00:52.898Z,99700.72
2023-04-01T09:03:35.365Z,99703.28
2023-04-01T09:06:12.556Z,99699.16
2023-04-01T09:08:52.256Z,99705.41
2023-04-01T09:11:29.046Z,99707.00
2023-04-01T09:14:14.786Z,99712.69
2023-04-01T09:16:51.866Z,99712.97
2023-04-01T09:19:37.260Z,99714.63
2023-04-01T09:22:17.269Z,99728.22
2023-04-01T09:24:57.847Z,99726.41
2023-04-01T09:27:51.652Z,99723.75
2023-04-01T09:30:28.516Z,99731.88
2023-04-01T09:33:10.838Z,99729.16
2023-04-01T09:35:57.450Z,99739.28
2023-04-01T09:38:30.605Z,99741.53
2023-04-01T09:40:58.133Z,99756.19
2023-04-01T09:43:28.310Z,99751.25
2023-04-01T09:46:06.432Z,99763.28
2023-04-01T09:48:44.486Z,99763.97
2023-04-01T09:51:23.415Z,99765.53
2023-04-01T09:53:58.108Z,99773.56
2023-04-01T09:56:40.957Z,99777.50
2023-04-01T09:59:39.881Z,99779.72
2023-04-01T10:02:07.535Z,99778.56
2023-04-01T10:04:53.719Z,99786.59
2023-04-01T10:07:32.788Z,99783.84
2023-04-01T10:10:18.791Z,99781.53
2023-04-01T10:12:55.719Z,99795.31
2023-04-01T10:15:42.250Z,99785.97
2023-04-01T10:18:32.461Z,99799.66
2023-04-01T10:21:16.356Z,99797.16
2023-04-01T10:23:46.499Z,99806.47
2023-04-01T10:26:32.368Z,99805.28
2023-04-01T10:29:04.506Z,99800.84
2023-04-01T10:31:37.827Z,99808.72
2023-04-01T10:34:24.131Z,99810.81
2023-04-01T10:36:55.669Z,99816.06
2023-04-01T10:39:41.957Z,99812.06
2023-04-01T10:42:27.996Z,99824.00
2023-04-01T10:45:13.978Z,99834.00
2023-04-01T10:47:52.381Z,99834.06
2023-04-01T10:50:26.558Z,99832.97
2023-04-01T10:52:53.890Z,99840.66
2023-04-01T10:55:39.887Z,99847.75
2023-04-01T10:58:15.383Z,99858.63
2023-04-01T11:00:48.082Z,99845.97
2023-04-01T11:03:34.077Z,99851.16
2023-04-01T11:06:17.296Z,99857.91
2023-04-01T11:09:02.532Z,99867.22
2023-04-01T11:11:48.226Z,99857.78
2023-04-01T11:14:18.563Z,99859.97
2023-04-01T11:16:50.901Z,99861.94
2023-04-01T11:19:29.829Z,99878.16
2023-04-01T11:22:26.267Z,99869.09
2023-04-01T11:25:11.538Z,99877.16
2023-04-01T11:28:08.876Z,99891.53
2023-04-01T11:30:36.106Z,99891.19
2023-04-01T11:33:07.094Z,99900.03
2023-04-01T11:35:40.082Z,99904.63
2023-04-01T11:38:25.264Z,99900.59
2023-04-01T11:41:01.062Z,99914.06
2023-04-01T11:43:38.290Z,99915.50
2023-04-01T11:46:43.012Z,99919.25
2023-04-01T11:49:28.512Z,99926.41
2023-04-01T11:51:55.821Z,99930.25
2023-04-01T11:54:22.657Z,99927.38
2023-04-01T11:57:01.892Z,99931.25
2023-04-01T11:59:41.919Z,99942.63
2023-04-01T12:02:11.996Z,99946.22
2023-04-01T12:04:44.854Z,99945.50
2023-04-01T12:07:17.966Z,99953.84
2023-04-01T12:09:51.526Z,99951.34
2023-04-01T12:12:18.364Z,99972.81
2023-04-01T12:14:45.155Z,99972.94
2023-04-01T12:17:36.792Z,99972.81
2023-04-01T12:20:13.889Z,99977.13
2023-04-01T12:23:06.927Z,99976.84
2023-04-01T12:25:52.493Z,99985.19
2023-04-01T12:28:35.621Z,99989.50
2023-04-01T12:31:15.733Z,99994.81
2023-04-01T12:33:49.976Z,100004.09
2023-04-01T12:36:16.769Z,99998.47
2023-04-01T12:38:53.957Z,100006.69
2023-04-01T12:41:36.368Z,100012.75
2023-04-01T12:44:03.430Z,100015.66
2023-04-01T12:46:50.307Z,100020.34
2023-04-01T12:49:35.835Z,100026.47
2023-04-01T12:52:06.146Z,100036.13
2023-04-01T12:54:52.169Z,100039.00
2023-04-01T12:57:21.834Z,100044.94
2023-04-01T12:59:52.500Z,100044.38
2023-04-01T13:02:28.459Z,100044.66
2023-04-01T13:05:14.295Z,100044.25
2023-04-01T13:07:47.482Z,100048.44
2023-04-01T13:10:14.416Z,100056.75
2023-04-01T13:12:54.413Z,100052.53
2023-04-01T13:15:32.619Z,100066.44
2023-04-01T13:18:09.523Z,100073.13
2023-04-01T13:20:36.268Z,100074.25
2023-04-01T13:23:26.250Z,100071.13
2023-04-01T13:26:15.363Z,100073.78
2023-04-01T13:28:54.970Z,100081.19
2023-04-01T13:31:40.640Z,100080.72
2023-04-01T13:34:35.218Z,100081.16
2023-04-01T13:37:05.706Z,100107.84
2023-04-01T13:39:46.931Z,100097.44
2023-04-01T13:42:30.046Z,100098.50
2023-04-01T13:45:16.410Z,100108.31
2023-04-01T13:47:44.536Z,100106.75
2023-04-01T13:50:15.214Z,100111.22
2023-04-01T13:52:42.852Z,100111.22
2023-04-01T13:55:21.648Z,100124.00
2023-04-01T13:58:23.184Z,100115.13
2023-04-01T14:01:05.276Z,100134.75
2023-04-01T14:03:51.087Z,100139.56
2023-04-01T14:06:31.208Z,100139.91
2023-04-01T14:09:10.459Z,100140.28
2023-04-01T14:11:57.377Z,100139.16
2023-04-01T14:14:39.270Z,100144.63
2023-04-01T14:17:15.850Z,100156.75
2023-04-01T14:20:03.045Z,100160.25
2023-04-01T14:22:39.429Z,100167.03
2023-04-01T14:25:24.564Z,100158.91
2023-04-01T14:27:54.400Z,100168.31
2023-04-01T14:30:40.883Z,100177.94
2023-04-01T14:33:17.967Z,100176.50
2023-04-01T14:35:45.309Z,100178.63
2023-04-01T14:38:21.557Z,100181.44
2023-04-01T14:41:05.244Z,100187.13
2023-04-01T14:43:40.145Z,100190.66
2023-04-01T14:46:11.229Z,100198.22
2023-04-01T14:48:38.823Z,100197.19
2023-04-01T14:51:16.694Z,100197.03
2023-04-01T14:53:52.205Z,100203.03
2023-04-01T14:56:36.471Z,100207.25
2023-04-01T14:59:08.723Z,100214.69
2023-04-01T15:01:55.435Z,100217.47
2023-04-01T15:04:31.305Z,100225.50
2023-04-01T15:07:27.658Z,100227.84
2023-04-01T15:09:54.762Z,100224.03
2023-04-01T15:12:23.388Z,100233.19
2023-04-01T15:14:56.953Z,100238.28
2023-04-01T15:17:25.067Z,100239.28
2023-04-01T15:20:10.317Z,100247.53
2023-04-01T15:22:58.412Z,100258.94
2023-04-01T15:25:37.793Z,100255.22
2023-04-01T15:28:11.130Z,100256.09
2023-04-01T15:30:53.814Z,100265.97
2023-04-01T15:33:27.257Z,100263.09
2023-04-01T15:35:54.915Z,100274.44
2023-04-01T15:38:36.517Z,100281.34
2023-04-01T15:41:10.329Z,100285.53
2023-04-01T15:43:43.114Z,100293.25
2023-04-01T15:46:36.024Z,100289.31
2023-04-01T15:49:24.334Z,100296.78
2023-04-01T15:51:51.621Z,100303.50
2023-04-01T15:54:49.318Z,100308.22
2023-04-01T15:57:16.850Z,100314.06
2023-04-01T15:59:44.989Z,100320.09
2023-04-01T16:02:15.177Z,100316.00
2023-04-01T16:04:52.673Z,100315.78
2023-04-01T16:07:39.069Z,100325.22
2023-04-01T16:10:11.684Z,100336.59
2023-04-01T16:12:44.781Z,100339.47
2023-04-01T16:15:21.576Z,100335.44
2023-04-01T16:17:51.557Z,100355.50
2023-04-01T16:20:48.930Z,100356.31
2023-04-01T16:23:35.193Z,100355.00
2023-04-01T16:26:09.269Z,100364.59
2023-04-01T16:28:45.924Z,100367.59
2023-04-01T16:31:32.349Z,100376.06
2023-04-01T16:34:20.609Z,100376.69
2023-04-01T16:36:53.270Z,100381.88
2023-04-01T16:39:45.914Z,100392.09
2023-04-01T16:42:19.392Z,100396.22
2023-04-01T16:44:57.630Z,100396.81
2023-04-01T16:47:29.645Z,100400.75
2023-04-01T16:50:10.190Z,100410.03
2023-04-01T16:53:03.571Z,100420.31
2023-04-01T16:56:02.080Z,100431.69
2023-04-01T16:58:51.069Z,100434.84
2023-04-01T17:01:24.223Z,100431.78
2023-04-01T17:03:56.170Z,100457.25
2023-04-01T17:06:47.008Z,100442.56
2023-04-01T17:09:33.888Z,100448.81
2023-04-01T17:12:19.682Z,100453.03
2023-04-01T17:15:02.090Z,100470.19
2023-04-01T17:20:27.986Z,100477.16
2023-04-01T17:23:01.445Z,100478.97
2023-04-01T17:25:35.189Z,100485.78
2023-04-01T17:28:05.722Z,100504.28
2023-04-01T17:31:09.606Z,100503.53
2023-04-01T17:33:43.100Z,100514.28
2023-04-01T17:36:29.032Z,100511.78
2023-04-01T17:39:15.394Z,100524.72
2023-04-01T17:41:47.481Z,100530.28
2023-04-01T17:44:20.678Z,100532.03
2023-04-01T17:47:03.128Z,100543.50
2023-04-01T17:49:30.283Z,100544.81
2023-04-01T17:51:57.676Z,100549.31
2023-04-01T17:54:43.634Z,100557.91
2023-04-01T17:57:16.589Z,100557.75
2023-04-01T17:59:54.914Z,100569.25
2023-04-01T18:02:42.394Z,100565.75
2023-04-01T18:05:28.631Z,100580.38
2023-04-01T18:08:14.077Z,100579.44
2023-04-01T18:11:06.057Z,100593.94
2023-04-01T18:13:57.994Z,100606.22
2023-04-01T18:16:36.570Z,100614.13
2023-04-01T18:19:03.806Z,100614.19
2023-04-01T18:21:35.265Z,100618.31
2023-04-01T18:24:21.211Z,100628.69
2023-04-01T18:26:52.267Z,100624.97
2023-04-01T18:29:42.027Z,100642.72
2023-04-01T18:32:12.211Z,100646.63
2023-04-01T18:34:53.822Z,100651.47
2023-04-01T18:37:24.740Z,100665.81
2023-04-01T18:39:56.142Z,100660.69
2023-04-01T18:42:42.664Z,100669.00
2023-04-01T18:45:24.639Z,100682.19
2023-04-01T18:48:10.364Z,100682.53
2023-04-01T18:50:45.532Z,100683.63
2023-04-01T18:53:20.657Z,100697.63
2023-04-01T18:55:59.589Z,100694.41
2023-04-01T18:58:26.982Z,100706.06
2023-04-01T19:01:06.614Z,100704.94
2023-04-01T19:03:34.410Z,100716.75
2023-04-01T19:06:15.616Z,100724.31
2023-04-01T19:08:43.195Z,100724.53
2023-04-01T19:11:30.841Z,100728.16
2023-04-01T19:13:57.761Z,100728.78
2023-04-01T19:16:25.751Z,100742.22
2023-04-01T19:18:59.698Z,100741.59
2023-04-01T19:21:35.065Z,100746.19
2023-04-01T19:24:05.276Z,100754.44
2023-04-01T19:26:50.621Z,100754.47
2023-04-01T19:29:24.182Z,100760.97
2023-04-01T19:31:57.170Z,100763.22
2023-04-01T19:34:32.806Z,100775.88
2023-04-01T19:37:18.837Z,100776.72
2023-04-01T19:39:45.741Z,100778.25
2023-04-01T19:42:12.796Z,100784.53
2023-04-01T19:44:44.365Z,100793.72
2023-04-01T19:47:30.518Z,100794.81
2023-04-01T19:50:17.683Z,100796.50
2023-04-01T19:52:49.619Z,100804.94
2023-04-01T19:55:34.913Z,100810.69
2023-04-01T19:58:03.863Z,100811.81
2023-04-01T20:00:36.188Z,100821.53
2023-04-01T20:03:22.916Z,100823.50
2023-04-01T20:06:08.734Z,100831.31
2023-04-01T20:08:55.857Z,100839.44
2023-04-01T20:11:47.883Z,100842.91
2023-04-01T20:14:34.605Z,100852.59
2023-04-01T20:17:09.582Z,100852.09
2023-04-01T20:19:42.022Z,100861.09
2023-04-01T20:22:33.190Z,100861.34
2023-04-01T20:25:07.298Z,100874.59
2023-04-01T20:27:38.358Z,100885.59
2023-04-01T20:30:25.061Z,100882.97
2023-04-01T20:33:08.563Z,100894.81
2023-04-01T20:35:36.837Z,100899.41
2023-04-01T20:38:08.546Z,100905.25
2023-04-01T20:40:41.833Z,100898.06
2023-04-01T20:43:12.282Z,100910.38
2023-04-01T20:45:49.137Z,100916.53
2023-04-01T20:48:36.108Z,100916.00
2023-04-01T20:51:23.385Z,100914.88
2023-04-01T20:54:06.963Z,100916.09
2023-04-01T20:57:01.364Z,100926.69
2023-04-01T20:59:47.814Z,100934.53
2023-04-01T21:02:33.409Z,100936.28
2023-04-01T21:05:21.341Z,100934.50
2023-04-01T21:08:12.123Z,100939.91
2023-04-01T21:10:48.646Z,100955.47
2023-04-01T21:13:25.412Z,100962.03
2023-04-01T21:16:01.819Z,100956.47
2023-04-01T21:18:49.079Z,100962.69
2023-04-01T21:21:41.556Z,100966.78
2023-04-01T21:24:27.405Z,100969.78
2023-04-01T21:27:01.757Z,100978.09
2023-04-01T21:29:48.617Z,100983.13
2023-04-01T21:32:31.425Z,100984.63
2023-04-01T21:35:21.646Z,100993.19
2023-04-01T21:38:06.868Z,100992.78
2023-04-01T21:40:36.889Z,101004.84
2023-04-01T21:43:13.220Z,101002.84
2023-04-01T21:45:52.010Z,101014.78
2023-04-01T21:48:19.124Z,101007.03
2023-04-01T21:50:58.457Z,101020.59
2023-04-01T21:54:01.380Z,101026.28
2023-04-01T21:56:43.588Z,101024.06
2023-04-01T21:59:16.201Z,101023.63
2023-04-01T22:01:52.392Z,101031.50
2023-04-01T22:04:21.888Z,101034.66
2023-04-01T22:06:57.804Z,101042.06
2023-04-01T22:09:35.616Z,101051.66
2023-04-01T22:12:04.157Z,101046.41
2023-04-01T22:14:41.527Z,101051.38
2023-04-01T22:17:28.330Z,101068.97
2023-04-01T22:19:57.892Z,101063.69
2023-04-01T22:22:31.989Z,101067.25
2023-04-01T22:24:58.920Z,101063.78
2023-04-01T22:27:30.070Z,101078.81
2023-04-01T22:30:13.292Z,101079.19
2023-04-01T22:32:51.113Z,101081.25
2023-04-01T22:35:38.521Z,101088.47
2023-04-01T22:38:20.780Z,101097.84
2023-04-01T22:40:51.019Z,101090.41
2023-04-01T22:43:24.606Z,101100.31
2023-04-01T22:46:01.190Z,101109.00
2023-04-01T22:48:27.879Z,101110.09
2023-04-01T22:51:13.937Z,101106.50
2023-04-01T22:54:09.759Z,101112.53
2023-04-01T22:56:38.391Z,101120.78
2023-04-01T22:59:21.194Z,101131.03
2023-04-01T23:01:51.534Z,101132.72
2023-04-01T23:04:23.094Z,101132.75
2023-04-01T23:06:55.612Z,101132.97
2023-04-01T23:09:25.590Z,101130.53
2023-04-01T23:11:53.027Z,101139.41
2023-04-01T23:14:24.437Z,101145.16
2023-04-01T23:16:54.414Z,101145.28
2023-04-01T23:19:40.372Z,101156.72
2023-04-01T23:22:17.622Z,101165.13
2023-04-01T23:24:50.438Z,101167.00
2023-04-01T23:27:20.311Z,101167.81
2023-04-01T23:29:47.087Z,101179.06
2023-04-01T23:32:18.908Z,101181.84
2023-04-01T23:34:54.560Z,101181.34
2023-04-01T23:37:21.815Z,101195.63
2023-04-01T23:39:53.054Z,101184.19
2023-04-01T23:42:23.026Z,101198.13
2023-04-01T23:44:50.621Z,101203.66
2023-04-01T23:47:19.992Z,101211.06
2023-04-01T23:49:50.263Z,101210.66
2023-04-01T23:52:23.494Z,101227.25
2023-04-01T23:55:00.914Z,101207.84
2023-04-01T23:57:31.541Z,101224.41
